sensor_id;sensor_type;location;lat;lon;timestamp;temperature;humidity
70947;DHT22;58605;48.700;8.760;2023-03-11T00:01:10;3.60;78.70
70947;DHT22;58605;48.700;8.760;2023-03-11T00:03:36;3.70;79.50
70947;DHT22;58605;48.700;8.760;2023-03-11T00:06:03;3.80;80.30
70947;DHT22;58605;48.700;8.760;2023-03-11T00:08:31;3.70;78.40
70947;DHT22;58605;48.700;8.760;2023-03-11T00:10:58;3.60;78.40
70947;DHT22;58605;48.700;8.760;2023-03-11T00:13:28;3.40;77.50
70947;DHT22;58605;48.700;8.760;2023-03-11T00:15:55;3.60;80.30
70947;DHT22;58605;48.700;8.760;2023-03-11T00:18:22;3.70;79.90
70947;DHT22;58605;48.700;8.760;2023-03-11T00:20:52;3.60;78.80
70947;DHT22;58605;48.700;8.760;2023-03-11T00:23:19;3.70;79.30
70947;DHT22;58605;48.700;8.760;2023-03-11T00:25:46;3.70;79.70
70947;DHT22;58605;48.700;8.760;2023-03-11T00:28:14;3.60;79.50
70947;DHT22;58605;48.700;8.760;2023-03-11T00:30:41;3.60;81.30
70947;DHT22;58605;48.700;8.760;2023-03-11T00:33:08;3.60;80.40
70947;DHT22;58605;48.700;8.760;2023-03-11T00:35:36;3.80;82.00
70947;DHT22;58605;48.700;8.760;2023-03-11T00:38:04;3.80;80.70
70947;DHT22;58605;48.700;8.760;2023-03-11T00:40:32;3.80;80.00
70947;DHT22;58605;48.700;8.760;2023-03-11T00:43:00;3.80;79.00
70947;DHT22;58605;48.700;8.760;2023-03-11T00:45:27;3.80;80.20
70947;DHT22;58605;48.700;8.760;2023-03-11T00:47:53;3.80;79.90
70947;DHT22;58605;48.700;8.760;2023-03-11T00:50:22;3.70;79.20
70947;DHT22;58605;48.700;8.760;2023-03-11T00:52:49;3.70;78.60
70947;DHT22;58605;48.700;8.760;2023-03-11T00:55:17;3.70;80.70
70947;DHT22;58605;48.700;8.760;2023-03-11T00:57:44;3.60;79.80
70947;DHT22;58605;48.700;8.760;2023-03-11T01:00:15;3.60;80.00
70947;DHT22;58605;48.700;8.760;2023-03-11T01:02:43;3.30;79.00
70947;DHT22;58605;48.700;8.760;2023-03-11T01:05:10;3.20;78.90
70947;DHT22;58605;48.700;8.760;2023-03-11T01:07:36;3.30;79.80
70947;DHT22;58605;48.700;8.760;2023-03-11T01:10:03;3.40;79.50
70947;DHT22;58605;48.700;8.760;2023-03-11T01:12:29;3.50;79.80
70947;DHT22;58605;48.700;8.760;2023-03-11T01:14:55;3.50;79.80
70947;DHT22;58605;48.700;8.760;2023-03-11T01:17:22;3.50;80.10
70947;DHT22;58605;48.700;8.760;2023-03-11T01:19:48;3.40;79.50
70947;DHT22;58605;48.700;8.760;2023-03-11T01:22:15;3.50;79.40
70947;DHT22;58605;48.700;8.760;2023-03-11T01:24:41;3.50;80.00
70947;DHT22;58605;48.700;8.760;2023-03-11T01:27:07;3.50;78.40
70947;DHT22;58605;48.700;8.760;2023-03-11T01:29:33;3.40;78.90
70947;DHT22;58605;48.700;8.760;2023-03-11T01:31:59;3.40;78.60
70947;DHT22;58605;48.700;8.760;2023-03-11T01:34:27;3.40;77.40
70947;DHT22;58605;48.700;8.760;2023-03-11T01:36:53;3.40;76.80
70947;DHT22;58605;48.700;8.760;2023-03-11T01:39:19;3.30;77.30
70947;DHT22;58605;48.700;8.760;2023-03-11T01:41:45;3.40;77.40
70947;DHT22;58605;48.700;8.760;2023-03-11T01:44:11;3.20;77.00
70947;DHT22;58605;48.700;8.760;2023-03-11T01:49:45;2.80;76.60
70947;DHT22;58605;48.700;8.760;2023-03-11T01:52:13;2.40;77.20
70947;DHT22;58605;48.700;8.760;2023-03-11T01:54:40;2.50;78.50
70947;DHT22;58605;48.700;8.760;2023-03-11T01:57:09;2.60;78.20
70947;DHT22;58605;48.700;8.760;2023-03-11T01:59:39;2.60;78.00
70947;DHT22;58605;48.700;8.760;2023-03-11T02:02:24;2.60;78.10
70947;DHT22;58605;48.700;8.760;2023-03-11T02:04:55;2.70;78.70
70947;DHT22;58605;48.700;8.760;2023-03-11T02:07:21;2.60;77.70
70947;DHT22;58605;48.700;8.760;2023-03-11T02:09:47;2.60;77.90
70947;DHT22;58605;48.700;8.760;2023-03-11T02:12:14;2.60;77.50
70947;DHT22;58605;48.700;8.760;2023-03-11T02:14:43;2.60;78.00
70947;DHT22;58605;48.700;8.760;2023-03-11T02:17:10;2.60;77.30
70947;DHT22;58605;48.700;8.760;2023-03-11T02:20:01;2.60;77.80
70947;DHT22;58605;48.700;8.760;2023-03-11T02:22:31;2.80;77.60
70947;DHT22;58605;48.700;8.760;2023-03-11T02:25:02;2.20;76.50
70947;DHT22;58605;48.700;8.760;2023-03-11T02:27:32;2.30;76.80
70947;DHT22;58605;48.700;8.760;2023-03-11T02:30:01;2.40;76.90
70947;DHT22;58605;48.700;8.760;2023-03-11T02:32:28;2.60;75.80
70947;DHT22;58605;48.700;8.760;2023-03-11T02:34:54;2.60;75.90
70947;DHT22;58605;48.700;8.760;2023-03-11T02:37:20;2.60;75.30
70947;DHT22;58605;48.700;8.760;2023-03-11T02:39:48;2.50;74.40
70947;DHT22;58605;48.700;8.760;2023-03-11T02:42:17;2.30;74.40
70947;DHT22;58605;48.700;8.760;2023-03-11T02:44:48;2.30;74.40
70947;DHT22;58605;48.700;8.760;2023-03-11T02:47:18;2.30;74.70
70947;DHT22;58605;48.700;8.760;2023-03-11T02:49:44;2.10;72.90
70947;DHT22;58605;48.700;8.760;2023-03-11T02:52:10;1.60;74.10
70947;DHT22;58605;48.700;8.760;2023-03-11T02:54:43;1.50;73.80
70947;DHT22;58605;48.700;8.760;2023-03-11T02:57:09;1.50;74.50
70947;DHT22;58605;48.700;8.760;2023-03-11T02:59:35;1.80;74.90
70947;DHT22;58605;48.700;8.760;2023-03-11T03:02:03;1.80;73.30
70947;DHT22;58605;48.700;8.760;2023-03-11T03:04:29;1.60;73.80
70947;DHT22;58605;48.700;8.760;2023-03-11T03:06:55;1.60;73.40
70947;DHT22;58605;48.700;8.760;2023-03-11T03:09:21;1.70;74.50
70947;DHT22;58605;48.700;8.760;2023-03-11T03:11:47;1.60;73.90
70947;DHT22;58605;48.700;8.760;2023-03-11T03:14:13;1.60;75.30
70947;DHT22;58605;48.700;8.760;2023-03-11T03:16:39;1.80;74.80
70947;DHT22;58605;48.700;8.760;2023-03-11T03:19:06;1.60;74.60
70947;DHT22;58605;48.700;8.760;2023-03-11T03:21:32;1.40;75.00
70947;DHT22;58605;48.700;8.760;2023-03-11T03:23:58;1.50;75.60
70947;DHT22;58605;48.700;8.760;2023-03-11T03:26:24;1.70;75.20
70947;DHT22;58605;48.700;8.760;2023-03-11T03:28:50;1.70;74.60
70947;DHT22;58605;48.700;8.760;2023-03-11T03:31:16;1.60;73.40
70947;DHT22;58605;48.700;8.760;2023-03-11T03:33:42;1.60;74.30
70947;DHT22;58605;48.700;8.760;2023-03-11T03:36:11;1.60;74.70
70947;DHT22;58605;48.700;8.760;2023-03-11T03:38:37;1.50;74.40
70947;DHT22;58605;48.700;8.760;2023-03-11T03:41:04;1.50;75.00
70947;DHT22;58605;48.700;8.760;2023-03-11T03:43:30;1.40;74.70
70947;DHT22;58605;48.700;8.760;2023-03-11T03:45:56;1.40;75.40
70947;DHT22;58605;48.700;8.760;2023-03-11T03:48:22;1.30;75.80
70947;DHT22;58605;48.700;8.760;2023-03-11T03:50:48;1.20;76.30
70947;DHT22;58605;48.700;8.760;2023-03-11T03:53:16;1.10;76.50
70947;DHT22;58605;48.700;8.760;2023-03-11T03:55:42;1.10;76.80
70947;DHT22;58605;48.700;8.760;2023-03-11T03:58:08;1.10;77.00
70947;DHT22;58605;48.700;8.760;2023-03-11T04:00:34;1.20;77.30
70947;DHT22;58605;48.700;8.760;2023-03-11T04:03:00;1.10;77.10
70947;DHT22;58605;48.700;8.760;2023-03-11T04:05:26;1.10;77.10
70947;DHT22;58605;48.700;8.760;2023-03-11T04:07:53;1.10;76.10
70947;DHT22;58605;48.700;8.760;2023-03-11T04:10:20;1.00;75.80
70947;DHT22;58605;48.700;8.760;2023-03-11T04:12:46;1.00;76.90
70947;DHT22;58605;48.700;8.760;2023-03-11T04:15:12;1.00;77.10
70947;DHT22;58605;48.700;8.760;2023-03-11T04:17:38;0.90;78.00
70947;DHT22;58605;48.700;8.760;2023-03-11T04:20:05;0.70;78.50
70947;DHT22;58605;48.700;8.760;2023-03-11T04:22:33;0.60;79.40
70947;DHT22;58605;48.700;8.760;2023-03-11T04:24:59;0.70;78.60
70947;DHT22;58605;48.700;8.760;2023-03-11T04:27:26;0.70;78.40
70947;DHT22;58605;48.700;8.760;2023-03-11T04:29:52;0.80;78.00
70947;DHT22;58605;48.700;8.760;2023-03-11T04:32:18;0.70;78.20
70947;DHT22;58605;48.700;8.760;2023-03-11T04:34:44;0.60;78.40
70947;DHT22;58605;48.700;8.760;2023-03-11T04:37:10;0.50;79.40
70947;DHT22;58605;48.700;8.760;2023-03-11T04:39:36;0.40;79.10
70947;DHT22;58605;48.700;8.760;2023-03-11T04:42:02;0.30;79.30
70947;DHT22;58605;48.700;8.760;2023-03-11T04:44:29;0.30;79.20
70947;DHT22;58605;48.700;8.760;2023-03-11T04:46:55;0.30;79.20
70947;DHT22;58605;48.700;8.760;2023-03-11T04:49:21;0.30;79.20
70947;DHT22;58605;48.700;8.760;2023-03-11T04:51:47;0.30;79.40
70947;DHT22;58605;48.700;8.760;2023-03-11T04:54:13;0.20;79.50
70947;DHT22;58605;48.700;8.760;2023-03-11T04:56:39;0.20;79.70
70947;DHT22;58605;48.700;8.760;2023-03-11T04:59:05;0.40;79.60
70947;DHT22;58605;48.700;8.760;2023-03-11T05:01:33;0.40;79.50
70947;DHT22;58605;48.700;8.760;2023-03-11T05:03:59;0.40;79.20
70947;DHT22;58605;48.700;8.760;2023-03-11T05:06:25;0.30;79.40
70947;DHT22;58605;48.700;8.760;2023-03-11T05:08:51;0.30;79.40
70947;DHT22;58605;48.700;8.760;2023-03-11T05:11:17;0.30;79.80
70947;DHT22;58605;48.700;8.760;2023-03-11T05:13:43;0.30;80.20
70947;DHT22;58605;48.700;8.760;2023-03-11T05:16:08;0.20;80.60
70947;DHT22;58605;48.700;8.760;2023-03-11T05:18:36;0.10;80.60
70947;DHT22;58605;48.700;8.760;2023-03-11T05:21:02;0.00;81.50
70947;DHT22;58605;48.700;8.760;2023-03-11T05:23:28;-0.10;81.80
70947;DHT22;58605;48.700;8.760;2023-03-11T05:25:54;-0.30;82.10
70947;DHT22;58605;48.700;8.760;2023-03-11T05:28:20;-0.20;82.40
70947;DHT22;58605;48.700;8.760;2023-03-11T05:30:46;-0.20;83.10
70947;DHT22;58605;48.700;8.760;2023-03-11T05:33:12;0.00;82.70
70947;DHT22;58605;48.700;8.760;2023-03-11T05:35:40;0.00;82.20
70947;DHT22;58605;48.700;8.760;2023-03-11T05:38:07;-0.20;82.90
70947;DHT22;58605;48.700;8.760;2023-03-11T05:40:33;-0.30;83.40
70947;DHT22;58605;48.700;8.760;2023-03-11T05:42:59;-0.30;83.40
70947;DHT22;58605;48.700;8.760;2023-03-11T05:45:25;-0.40;83.60
70947;DHT22;58605;48.700;8.760;2023-03-11T05:47:51;-0.60;84.10
70947;DHT22;58605;48.700;8.760;2023-03-11T05:50:17;-0.60;84.50
70947;DHT22;58605;48.700;8.760;2023-03-11T05:52:45;-0.60;85.20
70947;DHT22;58605;48.700;8.760;2023-03-11T05:55:11;-0.60;84.70
70947;DHT22;58605;48.700;8.760;2023-03-11T05:57:37;-0.60;84.30
70947;DHT22;58605;48.700;8.760;2023-03-11T06:00:04;-0.50;84.10
70947;DHT22;58605;48.700;8.760;2023-03-11T06:02:31;-0.60;84.60
70947;DHT22;58605;48.700;8.760;2023-03-11T06:04:57;-0.60;85.10
70947;DHT22;58605;48.700;8.760;2023-03-11T06:07:23;-0.60;85.00
70947;DHT22;58605;48.700;8.760;2023-03-11T06:09:51;-0.50;84.80
70947;DHT22;58605;48.700;8.760;2023-03-11T06:12:17;-0.40;84.90
70947;DHT22;58605;48.700;8.760;2023-03-11T06:14:43;-0.30;84.80
70947;DHT22;58605;48.700;8.760;2023-03-11T06:17:09;-0.30;83.70
70947;DHT22;58605;48.700;8.760;2023-03-11T06:19:35;-0.30;84.10
70947;DHT22;58605;48.700;8.760;2023-03-11T06:22:01;-0.30;83.80
70947;DHT22;58605;48.700;8.760;2023-03-11T06:24:27;-0.30;83.80
70947;DHT22;58605;48.700;8.760;2023-03-11T06:26:55;-0.30;83.50
70947;DHT22;58605;48.700;8.760;2023-03-11T06:29:21;-0.20;83.10
70947;DHT22;58605;48.700;8.760;2023-03-11T06:31:49;-0.10;82.20
70947;DHT22;58605;48.700;8.760;2023-03-11T06:34:15;-0.20;81.80
70947;DHT22;58605;48.700;8.760;2023-03-11T06:36:41;-0.10;82.80
70947;DHT22;58605;48.700;8.760;2023-03-11T06:39:09;0.10;82.50
70947;DHT22;58605;48.700;8.760;2023-03-11T06:41:35;0.10;82.20
70947;DHT22;58605;48.700;8.760;2023-03-11T06:44:03;0.10;82.30
70947;DHT22;58605;48.700;8.760;2023-03-11T06:46:29;0.10;82.40
70947;DHT22;58605;48.700;8.760;2023-03-11T06:48:56;0.20;82.40
70947;DHT22;58605;48.700;8.760;2023-03-11T06:51:22;0.20;82.50
70947;DHT22;58605;48.700;8.760;2023-03-11T06:53:49;0.30;82.60
70947;DHT22;58605;48.700;8.760;2023-03-11T06:56:16;0.40;82.60
70947;DHT22;58605;48.700;8.760;2023-03-11T06:58:45;0.40;81.70
70947;DHT22;58605;48.700;8.760;2023-03-11T07:01:14;0.50;81.80
70947;DHT22;58605;48.700;8.760;2023-03-11T07:03:40;0.50;82.00
70947;DHT22;58605;48.700;8.760;2023-03-11T07:06:11;0.50;81.50
70947;DHT22;58605;48.700;8.760;2023-03-11T07:08:37;0.50;81.20
70947;DHT22;58605;48.700;8.760;2023-03-11T07:11:05;0.50;81.30
70947;DHT22;58605;48.700;8.760;2023-03-11T07:13:31;0.50;80.40
70947;DHT22;58605;48.700;8.760;2023-03-11T07:16:02;0.40;80.50
70947;DHT22;58605;48.700;8.760;2023-03-11T07:18:30;0.60;80.50
70947;DHT22;58605;48.700;8.760;2023-03-11T07:20:56;0.70;80.10
70947;DHT22;58605;48.700;8.760;2023-03-11T07:23:22;0.60;80.60
70947;DHT22;58605;48.700;8.760;2023-03-11T07:25:48;0.80;81.30
70947;DHT22;58605;48.700;8.760;2023-03-11T07:28:16;0.90;81.00
70947;DHT22;58605;48.700;8.760;2023-03-11T07:30:42;0.80;81.40
70947;DHT22;58605;48.700;8.760;2023-03-11T07:33:11;0.90;80.00
70947;DHT22;58605;48.700;8.760;2023-03-11T07:35:38;0.90;81.00
70947;DHT22;58605;48.700;8.760;2023-03-11T07:38:04;0.80;81.10
70947;DHT22;58605;48.700;8.760;2023-03-11T07:40:30;0.80;81.40
70947;DHT22;58605;48.700;8.760;2023-03-11T07:42:57;0.90;82.10
70947;DHT22;58605;48.700;8.760;2023-03-11T07:45:23;0.90;82.10
70947;DHT22;58605;48.700;8.760;2023-03-11T07:47:49;1.00;81.20
70947;DHT22;58605;48.700;8.760;2023-03-11T07:50:15;1.00;81.90
70947;DHT22;58605;48.700;8.760;2023-03-11T07:52:43;1.00;82.00
70947;DHT22;58605;48.700;8.760;2023-03-11T07:55:09;1.10;80.70
70947;DHT22;58605;48.700;8.760;2023-03-11T07:57:35;1.10;78.90
70947;DHT22;58605;48.700;8.760;2023-03-11T08:00:02;1.00;77.20
70947;DHT22;58605;48.700;8.760;2023-03-11T08:02:28;1.00;78.00
70947;DHT22;58605;48.700;8.760;2023-03-11T08:04:55;1.10;78.50
70947;DHT22;58605;48.700;8.760;2023-03-11T08:07:21;1.10;77.70
70947;DHT22;58605;48.700;8.760;2023-03-11T08:09:49;1.20;77.60
70947;DHT22;58605;48.700;8.760;2023-03-11T08:12:15;1.30;78.50
70947;DHT22;58605;48.700;8.760;2023-03-11T08:14:41;1.30;77.30
70947;DHT22;58605;48.700;8.760;2023-03-11T08:17:10;1.60;77.90
70947;DHT22;58605;48.700;8.760;2023-03-11T08:19:36;1.60;76.70
70947;DHT22;58605;48.700;8.760;2023-03-11T08:22:03;1.40;76.70
70947;DHT22;58605;48.700;8.760;2023-03-11T08:24:29;1.40;77.70
70947;DHT22;58605;48.700;8.760;2023-03-11T08:26:56;1.40;76.80
70947;DHT22;58605;48.700;8.760;2023-03-11T08:29:22;1.30;78.30
70947;DHT22;58605;48.700;8.760;2023-03-11T08:31:48;1.50;77.70
70947;DHT22;58605;48.700;8.760;2023-03-11T08:34:15;1.60;77.60
70947;DHT22;58605;48.700;8.760;2023-03-11T08:36:41;1.80;78.30
70947;DHT22;58605;48.700;8.760;2023-03-11T08:39:08;2.10;79.10
70947;DHT22;58605;48.700;8.760;2023-03-11T08:41:34;2.20;78.70
70947;DHT22;58605;48.700;8.760;2023-03-11T08:44:02;2.40;76.70
70947;DHT22;58605;48.700;8.760;2023-03-11T08:46:30;2.30;73.70
70947;DHT22;58605;48.700;8.760;2023-03-11T08:48:57;2.30;76.00
70947;DHT22;58605;48.700;8.760;2023-03-11T08:51:24;2.40;77.60
70947;DHT22;58605;48.700;8.760;2023-03-11T08:53:50;2.40;74.50
70947;DHT22;58605;48.700;8.760;2023-03-11T08:56:17;2.10;72.20
70947;DHT22;58605;48.700;8.760;2023-03-11T08:58:43;1.80;73.30
70947;DHT22;58605;48.700;8.760;2023-03-11T09:01:12;1.70;71.60
70947;DHT22;58605;48.700;8.760;2023-03-11T09:03:38;1.70;72.20
70947;DHT22;58605;48.700;8.760;2023-03-11T09:06:07;1.70;72.40
70947;DHT22;58605;48.700;8.760;2023-03-11T09:08:33;1.80;70.70
70947;DHT22;58605;48.700;8.760;2023-03-11T09:10:59;1.70;69.50
70947;DHT22;58605;48.700;8.760;2023-03-11T09:13:25;1.70;69.10
70947;DHT22;58605;48.700;8.760;2023-03-11T09:15:52;1.70;70.30
70947;DHT22;58605;48.700;8.760;2023-03-11T09:18:19;1.80;70.90
70947;DHT22;58605;48.700;8.760;2023-03-11T09:20:45;1.90;71.40
70947;DHT22;58605;48.700;8.760;2023-03-11T09:23:15;2.00;70.30
70947;DHT22;58605;48.700;8.760;2023-03-11T09:25:41;2.00;70.50
70947;DHT22;58605;48.700;8.760;2023-03-11T09:28:07;2.00;69.20
70947;DHT22;58605;48.700;8.760;2023-03-11T09:30:33;2.10;70.10
70947;DHT22;58605;48.700;8.760;2023-03-11T09:33:00;2.20;70.80
70947;DHT22;58605;48.700;8.760;2023-03-11T09:35:28;2.60;73.10
70947;DHT22;58605;48.700;8.760;2023-03-11T09:37:54;2.90;73.20
70947;DHT22;58605;48.700;8.760;2023-03-11T09:40:25;3.10;71.20
70947;DHT22;58605;48.700;8.760;2023-03-11T09:43:01;3.30;69.40
70947;DHT22;58605;48.700;8.760;2023-03-11T09:45:30;3.40;69.90
70947;DHT22;58605;48.700;8.760;2023-03-11T09:48:08;3.60;72.20
70947;DHT22;58605;48.700;8.760;2023-03-11T09:50:45;3.90;70.60
70947;DHT22;58605;48.700;8.760;2023-03-11T09:53:30;3.90;65.90
70947;DHT22;58605;48.700;8.760;2023-03-11T09:56:01;3.80;67.10
70947;DHT22;58605;48.700;8.760;2023-03-11T09:58:35;3.40;66.20
70947;DHT22;58605;48.700;8.760;2023-03-11T10:01:04;3.20;67.20
70947;DHT22;58605;48.700;8.760;2023-03-11T10:03:34;3.00;65.40
70947;DHT22;58605;48.700;8.760;2023-03-11T10:06:08;3.10;67.60
70947;DHT22;58605;48.700;8.760;2023-03-11T10:08:42;2.90;66.00
70947;DHT22;58605;48.700;8.760;2023-03-11T10:14:11;3.20;68.80
70947;DHT22;58605;48.700;8.760;2023-03-11T10:16:44;3.30;67.10
70947;DHT22;58605;48.700;8.760;2023-03-11T10:19:21;3.40;67.70
70947;DHT22;58605;48.700;8.760;2023-03-11T10:21:55;3.30;66.90
70947;DHT22;58605;48.700;8.760;2023-03-11T10:25:06;3.40;67.10
70947;DHT22;58605;48.700;8.760;2023-03-11T10:27:39;3.40;65.00
70947;DHT22;58605;48.700;8.760;2023-03-11T10:30:12;3.30;65.00
70947;DHT22;58605;48.700;8.760;2023-03-11T10:32:47;3.20;64.10
70947;DHT22;58605;48.700;8.760;2023-03-11T10:35:16;3.20;66.00
70947;DHT22;58605;48.700;8.760;2023-03-11T10:37:49;3.30;66.10
70947;DHT22;58605;48.700;8.760;2023-03-11T10:40:25;3.50;67.10
70947;DHT22;58605;48.700;8.760;2023-03-11T10:42:54;3.80;66.20
70947;DHT22;58605;48.700;8.760;2023-03-11T10:45:22;4.10;65.70
70947;DHT22;58605;48.700;8.760;2023-03-11T10:47:48;4.00;63.80
70947;DHT22;58605;48.700;8.760;2023-03-11T10:50:16;4.00;63.90
70947;DHT22;58605;48.700;8.760;2023-03-11T10:55:27;4.10;66.20
70947;DHT22;58605;48.700;8.760;2023-03-11T10:58:03;4.20;65.20
70947;DHT22;58605;48.700;8.760;2023-03-11T11:00:30;4.30;64.40
70947;DHT22;58605;48.700;8.760;2023-03-11T11:02:56;4.20;62.70
70947;DHT22;58605;48.700;8.760;2023-03-11T11:05:29;4.10;61.50
70947;DHT22;58605;48.700;8.760;2023-03-11T11:08:15;3.90;60.00
70947;DHT22;58605;48.700;8.760;2023-03-11T11:10:51;3.70;60.40
70947;DHT22;58605;48.700;8.760;2023-03-11T11:13:19;3.90;62.40
70947;DHT22;58605;48.700;8.760;2023-03-11T11:15:54;3.90;61.00
70947;DHT22;58605;48.700;8.760;2023-03-11T11:18:24;4.00;59.80
70947;DHT22;58605;48.700;8.760;2023-03-11T11:21:10;3.90;60.60
70947;DHT22;58605;48.700;8.760;2023-03-11T11:23:41;4.00;60.90
70947;DHT22;58605;48.700;8.760;2023-03-11T11:26:16;4.00;59.50
70947;DHT22;58605;48.700;8.760;2023-03-11T11:28:43;3.90;59.60
70947;DHT22;58605;48.700;8.760;2023-03-11T11:31:21;4.00;63.00
70947;DHT22;58605;48.700;8.760;2023-03-11T11:33:49;4.20;64.60
70947;DHT22;58605;48.700;8.760;2023-03-11T11:36:17;4.20;67.10
70947;DHT22;58605;48.700;8.760;2023-03-11T11:38:44;4.60;64.00
70947;DHT22;58605;48.700;8.760;2023-03-11T11:41:15;4.30;59.60
70947;DHT22;58605;48.700;8.760;2023-03-11T11:43:47;4.20;59.80
70947;DHT22;58605;48.700;8.760;2023-03-11T11:46:20;4.30;61.20
70947;DHT22;58605;48.700;8.760;2023-03-11T11:48:54;4.60;63.00
70947;DHT22;58605;48.700;8.760;2023-03-11T11:51:25;4.70;63.00
70947;DHT22;58605;48.700;8.760;2023-03-11T11:53:56;4.80;65.50
70947;DHT22;58605;48.700;8.760;2023-03-11T11:56:26;4.80;67.90
70947;DHT22;58605;48.700;8.760;2023-03-11T11:58:53;4.90;67.40
70947;DHT22;58605;48.700;8.760;2023-03-11T12:01:28;4.80;68.50
70947;DHT22;58605;48.700;8.760;2023-03-11T12:06:59;5.00;68.20
70947;DHT22;58605;48.700;8.760;2023-03-11T12:09:33;5.00;69.30
70947;DHT22;58605;48.700;8.760;2023-03-11T12:12:11;5.20;64.80
70947;DHT22;58605;48.700;8.760;2023-03-11T12:14:44;5.30;64.10
70947;DHT22;58605;48.700;8.760;2023-03-11T12:17:13;5.40;59.40
70947;DHT22;58605;48.700;8.760;2023-03-11T12:19:45;5.20;57.50
70947;DHT22;58605;48.700;8.760;2023-03-11T12:22:46;4.90;56.20
70947;DHT22;58605;48.700;8.760;2023-03-11T12:25:29;4.60;56.30
70947;DHT22;58605;48.700;8.760;2023-03-11T12:28:03;4.60;57.90
70947;DHT22;58605;48.700;8.760;2023-03-11T12:30:36;4.70;58.60
70947;DHT22;58605;48.700;8.760;2023-03-11T12:33:10;4.80;57.80
70947;DHT22;58605;48.700;8.760;2023-03-11T12:35:38;4.80;58.00
70947;DHT22;58605;48.700;8.760;2023-03-11T12:38:14;4.80;58.00
70947;DHT22;58605;48.700;8.760;2023-03-11T12:40:50;4.90;58.50
70947;DHT22;58605;48.700;8.760;2023-03-11T12:43:26;5.00;62.50
70947;DHT22;58605;48.700;8.760;2023-03-11T12:45:55;5.20;58.80
70947;DHT22;58605;48.700;8.760;2023-03-11T12:48:35;5.20;58.70
70947;DHT22;58605;48.700;8.760;2023-03-11T12:51:06;5.20;57.50
70947;DHT22;58605;48.700;8.760;2023-03-11T12:53:53;5.40;58.70
70947;DHT22;58605;48.700;8.760;2023-03-11T12:56:26;5.60;57.40
70947;DHT22;58605;48.700;8.760;2023-03-11T12:59:13;5.70;61.30
70947;DHT22;58605;48.700;8.760;2023-03-11T13:01:57;5.70;63.90
70947;DHT22;58605;48.700;8.760;2023-03-11T13:04:51;6.00;61.50
70947;DHT22;58605;48.700;8.760;2023-03-11T13:07:40;5.90;59.30
70947;DHT22;58605;48.700;8.760;2023-03-11T13:10:17;5.80;64.00
70947;DHT22;58605;48.700;8.760;2023-03-11T13:12:46;5.70;59.80
70947;DHT22;58605;48.700;8.760;2023-03-11T13:15:28;5.60;58.30
70947;DHT22;58605;48.700;8.760;2023-03-11T13:17:59;5.60;64.90
70947;DHT22;58605;48.700;8.760;2023-03-11T13:23:35;5.90;63.10
70947;DHT22;58605;48.700;8.760;2023-03-11T13:32:15;6.10;56.60
70947;DHT22;58605;48.700;8.760;2023-03-11T13:34:54;5.80;56.30
70947;DHT22;58605;48.700;8.760;2023-03-11T13:37:28;5.60;57.10
70947;DHT22;58605;48.700;8.760;2023-03-11T13:40:25;5.40;55.10
70947;DHT22;58605;48.700;8.760;2023-03-11T13:42:55;5.20;55.40
70947;DHT22;58605;48.700;8.760;2023-03-11T13:45:27;5.20;56.00
70947;DHT22;58605;48.700;8.760;2023-03-11T13:47:57;5.10;56.20
70947;DHT22;58605;48.700;8.760;2023-03-11T13:50:28;5.20;56.30
70947;DHT22;58605;48.700;8.760;2023-03-11T13:52:56;5.30;56.20
70947;DHT22;58605;48.700;8.760;2023-03-11T13:55:29;5.30;58.40
70947;DHT22;58605;48.700;8.760;2023-03-11T13:57:56;5.30;57.50
70947;DHT22;58605;48.700;8.760;2023-03-11T14:00:24;5.20;58.90
70947;DHT22;58605;48.700;8.760;2023-03-11T14:02:56;5.10;59.30
70947;DHT22;58605;48.700;8.760;2023-03-11T14:05:24;4.90;58.10
70947;DHT22;58605;48.700;8.760;2023-03-11T14:07:52;4.90;58.50
70947;DHT22;58605;48.700;8.760;2023-03-11T14:10:21;4.90;59.40
70947;DHT22;58605;48.700;8.760;2023-03-11T14:12:47;5.10;58.60
70947;DHT22;58605;48.700;8.760;2023-03-11T14:15:16;5.30;62.40
70947;DHT22;58605;48.700;8.760;2023-03-11T14:17:44;5.30;60.70
70947;DHT22;58605;48.700;8.760;2023-03-11T14:20:14;5.30;60.10
70947;DHT22;58605;48.700;8.760;2023-03-11T14:22:43;5.40;60.20
70947;DHT22;58605;48.700;8.760;2023-03-11T14:25:17;5.30;59.80
70947;DHT22;58605;48.700;8.760;2023-03-11T14:27:51;5.30;59.00
70947;DHT22;58605;48.700;8.760;2023-03-11T14:30:20;5.60;59.40
70947;DHT22;58605;48.700;8.760;2023-03-11T14:32:55;5.50;57.80
70947;DHT22;58605;48.700;8.760;2023-03-11T14:35:24;5.50;59.50
70947;DHT22;58605;48.700;8.760;2023-03-11T14:37:50;5.30;61.50
70947;DHT22;58605;48.700;8.760;2023-03-11T14:40:28;5.10;62.20
70947;DHT22;58605;48.700;8.760;2023-03-11T14:42:56;5.20;62.20
70947;DHT22;58605;48.700;8.760;2023-03-11T14:45:27;5.20;62.90
70947;DHT22;58605;48.700;8.760;2023-03-11T14:47:57;5.30;62.80
70947;DHT22;58605;48.700;8.760;2023-03-11T14:50:28;5.40;62.50
70947;DHT22;58605;48.700;8.760;2023-03-11T14:53:00;5.30;59.90
70947;DHT22;58605;48.700;8.760;2023-03-11T14:55:31;5.30;60.60
70947;DHT22;58605;48.700;8.760;2023-03-11T14:58:02;5.30;60.50
70947;DHT22;58605;48.700;8.760;2023-03-11T15:00:33;5.40;61.40
70947;DHT22;58605;48.700;8.760;2023-03-11T15:03:05;5.40;60.00
70947;DHT22;58605;48.700;8.760;2023-03-11T15:05:43;5.30;60.70
70947;DHT22;58605;48.700;8.760;2023-03-11T15:08:11;5.40;61.70
70947;DHT22;58605;48.700;8.760;2023-03-11T15:10:37;5.30;59.60
70947;DHT22;58605;48.700;8.760;2023-03-11T15:13:08;5.50;60.70
70947;DHT22;58605;48.700;8.760;2023-03-11T15:15:37;5.50;60.00
70947;DHT22;58605;48.700;8.760;2023-03-11T15:18:20;5.20;60.50
70947;DHT22;58605;48.700;8.760;2023-03-11T15:21:03;5.20;59.90
70947;DHT22;58605;48.700;8.760;2023-03-11T15:23:31;5.20;61.30
70947;DHT22;58605;48.700;8.760;2023-03-11T15:25:58;5.20;60.90
70947;DHT22;58605;48.700;8.760;2023-03-11T15:28:28;5.30;60.60
70947;DHT22;58605;48.700;8.760;2023-03-11T15:31:12;5.40;59.40
70947;DHT22;58605;48.700;8.760;2023-03-11T15:33:39;5.20;58.60
70947;DHT22;58605;48.700;8.760;2023-03-11T15:36:28;5.00;59.20
70947;DHT22;58605;48.700;8.760;2023-03-11T15:39:10;5.00;60.00
70947;DHT22;58605;48.700;8.760;2023-03-11T15:41:38;4.90;60.30
70947;DHT22;58605;48.700;8.760;2023-03-11T15:44:04;4.90;59.80
70947;DHT22;58605;48.700;8.760;2023-03-11T15:46:39;4.90;60.00
70947;DHT22;58605;48.700;8.760;2023-03-11T15:49:10;4.80;59.50
70947;DHT22;58605;48.700;8.760;2023-03-11T15:51:38;4.80;61.70
70947;DHT22;58605;48.700;8.760;2023-03-11T15:54:04;4.80;61.10
70947;DHT22;58605;48.700;8.760;2023-03-11T15:56:30;4.70;61.00
70947;DHT22;58605;48.700;8.760;2023-03-11T15:58:58;4.70;60.90
70947;DHT22;58605;48.700;8.760;2023-03-11T16:01:24;4.60;60.20
70947;DHT22;58605;48.700;8.760;2023-03-11T16:03:53;4.50;60.00
70947;DHT22;58605;48.700;8.760;2023-03-11T16:06:19;4.40;60.60
70947;DHT22;58605;48.700;8.760;2023-03-11T16:08:49;4.30;60.20
70947;DHT22;58605;48.700;8.760;2023-03-11T16:11:15;4.30;61.20
70947;DHT22;58605;48.700;8.760;2023-03-11T16:13:43;4.30;61.40
70947;DHT22;58605;48.700;8.760;2023-03-11T16:16:14;4.20;60.90
70947;DHT22;58605;48.700;8.760;2023-03-11T16:18:40;4.20;61.70